createdAt,value
2024-04-15T00:02:27.007Z,13.51
2024-04-15T00:04:55.011Z,13.47
2024-04-15T00:07:22.883Z,13.42
2024-04-15T00:09:50.941Z,13.39
2024-04-15T00:12:18.984Z,13.36
2024-04-15T00:14:46.849Z,13.32
2024-04-15T00:17:14.757Z,13.29
2024-04-15T00:19:42.773Z,13.27
2024-04-15T00:22:10.850Z,13.25
2024-04-15T00:24:39.101Z,13.22
2024-04-15T00:27:07.025Z,13.18
2024-04-15T00:29:35.107Z,13.15
2024-04-15T00:32:03.347Z,13.14
2024-04-15T00:34:32.934Z,13.12
2024-04-15T00:37:01.124Z,13.09
2024-04-15T00:39:29.236Z,13.05
2024-04-15T00:41:57.405Z,13.02
2024-04-15T00:44:34.942Z,12.99
2024-04-15T00:47:04.359Z,12.96
2024-04-15T00:49:34.971Z,12.94
2024-04-15T00:52:04.963Z,12.89
2024-04-15T00:54:35.190Z,12.85
2024-04-15T00:57:04.168Z,12.82
2024-04-15T00:59:34.518Z,12.78
2024-04-15T01:02:02.860Z,12.73
2024-04-15T01:04:31.026Z,12.69
2024-04-15T01:06:59.460Z,12.66
2024-04-15T01:09:27.336Z,12.64
2024-04-15T01:11:55.484Z,12.65
2024-04-15T01:14:23.426Z,12.66
2024-04-15T01:16:51.385Z,12.65
2024-04-15T01:19:19.536Z,12.64
2024-04-15T01:21:47.644Z,12.65
2024-04-15T01:24:15.849Z,12.66
2024-04-15T01:26:50.123Z,12.67
2024-04-15T01:29:18.007Z,12.69
2024-04-15T01:31:45.868Z,12.69
2024-04-15T01:34:13.867Z,12.68
2024-04-15T01:36:42.033Z,12.71
2024-04-15T01:39:10.669Z,12.73
2024-04-15T01:41:39.000Z,12.74
2024-04-15T01:44:07.340Z,12.73
2024-04-15T01:46:35.205Z,12.72
2024-04-15T01:49:03.644Z,12.71
2024-04-15T01:51:31.599Z,12.70
2024-04-15T01:54:00.143Z,12.69
2024-04-15T01:56:28.024Z,12.65
2024-04-15T01:58:55.969Z,12.60
2024-04-15T02:01:23.963Z,12.56
2024-04-15T02:03:52.268Z,12.52
2024-04-15T02:06:20.275Z,12.47
2024-04-15T02:08:48.388Z,12.43
2024-04-15T02:11:16.215Z,12.40
2024-04-15T02:13:44.306Z,12.38
2024-04-15T02:16:12.387Z,12.33
2024-04-15T02:18:40.808Z,12.28
2024-04-15T02:21:09.003Z,12.24
2024-04-15T02:23:37.150Z,12.19
2024-04-15T02:26:05.042Z,12.14
2024-04-15T02:28:33.062Z,12.10
2024-04-15T02:31:01.824Z,12.06
2024-04-15T02:33:30.138Z,12.02
2024-04-15T02:35:58.284Z,11.97
2024-04-15T02:38:26.363Z,11.93
2024-04-15T02:40:56.064Z,11.89
2024-04-15T02:43:24.311Z,11.81
2024-04-15T02:45:52.188Z,11.77
2024-04-15T02:48:20.231Z,11.73
2024-04-15T02:50:48.457Z,11.69
2024-04-15T02:53:16.422Z,11.68
2024-04-15T02:55:44.296Z,11.67
2024-04-15T02:58:12.323Z,11.65
2024-04-15T03:00:40.601Z,11.63
2024-04-15T03:03:08.619Z,11.62
2024-04-15T03:05:46.769Z,11.60
2024-04-15T03:08:14.828Z,11.56
2024-04-15T03:10:42.855Z,11.54
2024-04-15T03:13:10.876Z,11.52
2024-04-15T03:15:38.937Z,11.50
2024-04-15T03:18:06.899Z,11.49
2024-04-15T03:20:35.344Z,11.45
2024-04-15T03:23:03.864Z,11.43
2024-04-15T03:25:31.701Z,11.41
2024-04-15T03:27:59.784Z,11.40
2024-04-15T03:30:27.911Z,11.39
2024-04-15T03:32:56.207Z,11.39
2024-04-15T03:35:24.333Z,11.38
2024-04-15T03:37:52.145Z,11.37
2024-04-15T03:40:20.087Z,11.39
2024-04-15T03:42:49.345Z,11.41
2024-04-15T03:45:18.101Z,11.43
2024-04-15T03:47:46.618Z,11.45
2024-04-15T03:50:14.786Z,11.45
2024-04-15T03:52:42.654Z,11.47
2024-04-15T03:55:10.574Z,11.49
2024-04-15T03:57:39.398Z,11.54
2024-04-15T04:00:08.590Z,11.59
2024-04-15T04:02:36.660Z,11.64
2024-04-15T04:05:06.568Z,11.67
2024-04-15T04:07:38.764Z,11.67
2024-04-15T04:10:09.753Z,11.68
2024-04-15T04:12:37.832Z,11.70
2024-04-15T04:15:06.439Z,11.71
2024-04-15T04:17:34.526Z,11.71
2024-04-15T04:20:03.011Z,11.72
2024-04-15T04:22:31.424Z,11.72
2024-04-15T04:24:59.546Z,11.72
2024-04-15T04:27:28.503Z,11.72
2024-04-15T04:29:56.690Z,11.72
2024-04-15T04:32:25.087Z,11.71
2024-04-15T04:34:53.274Z,11.70
2024-04-15T04:37:21.194Z,11.69
2024-04-15T04:39:51.794Z,11.69
2024-04-15T04:42:19.882Z,11.70
2024-04-15T04:44:48.060Z,11.70
2024-04-15T04:47:17.188Z,11.71
2024-04-15T04:49:45.397Z,11.72
2024-04-15T04:52:13.442Z,11.73
2024-04-15T04:54:41.608Z,11.71
2024-04-15T04:57:10.020Z,11.71
2024-04-15T04:59:38.891Z,11.75
2024-04-15T05:02:08.004Z,11.79
2024-04-15T05:04:36.421Z,11.79
2024-04-15T05:07:04.714Z,11.81
2024-04-15T05:09:32.929Z,11.87
2024-04-15T05:12:00.950Z,11.93
2024-04-15T05:14:28.802Z,12.01
2024-04-15T05:16:56.664Z,12.09
2024-04-15T05:19:24.908Z,12.18
2024-04-15T05:21:53.271Z,12.28
2024-04-15T05:24:21.166Z,12.39
2024-04-15T05:26:49.065Z,12.49
2024-04-15T05:29:17.400Z,12.60
2024-04-15T05:31:45.478Z,12.73
2024-04-15T05:34:13.671Z,12.86
2024-04-15T05:36:41.937Z,13.00
2024-04-15T05:39:09.946Z,13.15
2024-04-15T05:41:37.901Z,13.31
2024-04-15T05:44:07.705Z,13.47
2024-04-15T05:46:47.744Z,13.63
2024-04-15T05:49:15.798Z,13.78
2024-04-15T05:51:44.970Z,13.94
2024-04-15T05:54:13.455Z,14.09
2024-04-15T05:56:41.683Z,14.25
2024-04-15T05:59:09.822Z,14.39
2024-04-15T06:01:37.884Z,14.53
2024-04-15T06:04:07.024Z,14.68
2024-04-15T06:06:35.179Z,14.83
2024-04-15T06:09:03.455Z,14.95
2024-04-15T06:11:31.669Z,15.07
2024-04-15T06:13:59.793Z,15.17
2024-04-15T06:16:27.962Z,15.26
2024-04-15T06:18:55.998Z,15.34
2024-04-15T06:21:24.216Z,15.41
2024-04-15T06:23:52.024Z,15.48
2024-04-15T06:26:20.121Z,15.55
2024-04-15T06:28:48.144Z,15.62
2024-04-15T06:31:16.263Z,15.68
2024-04-15T06:33:44.262Z,15.75
2024-04-15T06:36:12.569Z,15.81
2024-04-15T06:38:40.425Z,15.88
2024-04-15T06:41:08.492Z,15.94
2024-04-15T06:43:36.858Z,16.00
2024-04-15T06:46:04.938Z,16.06
2024-04-15T06:48:33.228Z,16.13
2024-04-15T06:51:02.037Z,16.19
2024-04-15T06:53:30.163Z,16.24
2024-04-15T06:55:58.310Z,16.30
2024-04-15T06:58:27.808Z,16.36
2024-04-15T07:00:58.994Z,16.43
2024-04-15T07:03:27.252Z,16.51
2024-04-15T07:05:55.539Z,16.59
2024-04-15T07:08:23.443Z,16.68
2024-04-15T07:10:53.060Z,16.77
2024-04-15T07:13:21.053Z,16.86
2024-04-15T07:15:49.850Z,16.95
2024-04-15T07:18:17.924Z,17.04
2024-04-15T07:20:47.376Z,17.14
2024-04-15T07:23:15.417Z,17.25
2024-04-15T07:25:43.534Z,17.37
2024-04-15T07:28:11.489Z,17.49
2024-04-15T07:30:39.521Z,17.62
2024-04-15T07:33:07.955Z,17.75
2024-04-15T07:35:37.139Z,17.88
2024-04-15T07:38:05.470Z,18.01
2024-04-15T07:40:33.515Z,18.12
2024-04-15T07:43:01.994Z,18.24
2024-04-15T07:45:30.073Z,18.36
2024-04-15T07:47:57.990Z,18.47
2024-04-15T07:50:27.529Z,18.59
2024-04-15T07:52:55.724Z,18.71
2024-04-15T07:55:24.032Z,18.83
2024-04-15T07:57:52.236Z,18.96
2024-04-15T08:00:20.535Z,19.11
2024-04-15T08:02:48.907Z,19.25
2024-04-15T08:05:19.307Z,19.39
2024-04-15T08:07:47.366Z,19.52
2024-04-15T08:10:15.922Z,19.64
2024-04-15T08:12:46.255Z,19.76
2024-04-15T08:15:14.879Z,19.89
2024-04-15T08:17:44.198Z,20.03
2024-04-15T08:20:12.340Z,20.16
2024-04-15T08:22:42.006Z,20.31
2024-04-15T08:25:10.350Z,20.45
2024-04-15T08:27:38.698Z,20.59
2024-04-15T08:30:07.925Z,20.71
2024-04-15T08:32:37.597Z,20.84
2024-04-15T08:35:06.177Z,20.97
2024-04-15T08:37:34.181Z,21.11
2024-04-15T08:40:02.260Z,21.27
2024-04-15T08:42:54.538Z,21.40
2024-04-15T08:45:25.028Z,21.55
2024-04-15T08:47:54.804Z,21.69
2024-04-15T08:50:24.335Z,21.83
2024-04-15T08:52:54.886Z,21.91
2024-04-15T08:55:24.858Z,22.05
2024-04-15T08:57:54.068Z,22.20
2024-04-15T09:00:23.418Z,22.32
2024-04-15T09:02:55.223Z,22.42
2024-04-15T09:05:23.655Z,22.54
2024-04-15T09:07:51.921Z,22.64
2024-04-15T09:10:20.474Z,22.72
2024-04-15T09:12:49.528Z,22.76
2024-04-15T09:15:23.904Z,22.80
2024-04-15T09:17:53.785Z,22.82
2024-04-15T09:20:34.943Z,22.86
2024-04-15T09:23:11.304Z,22.93
2024-04-15T09:25:39.822Z,22.98
2024-04-15T09:28:08.011Z,23.10
2024-04-15T09:30:36.088Z,23.23
2024-04-15T09:33:06.771Z,23.36
2024-04-15T09:35:35.037Z,23.52
2024-04-15T09:38:04.531Z,23.65
2024-04-15T09:40:34.745Z,23.74
2024-04-15T09:43:04.400Z,23.85
2024-04-15T09:45:33.075Z,23.97
2024-04-15T09:48:01.976Z,24.09
2024-04-15T09:50:33.061Z,24.16
2024-04-15T09:53:02.468Z,24.15
2024-04-15T09:55:35.001Z,24.21
2024-04-15T09:58:04.688Z,24.30
2024-04-15T10:00:36.370Z,24.43
2024-04-15T10:03:14.606Z,24.52
2024-04-15T10:05:45.691Z,24.64
2024-04-15T10:08:14.910Z,24.80
2024-04-15T10:10:43.916Z,24.92
2024-04-15T10:13:12.483Z,25.05
2024-04-15T10:15:41.230Z,25.20
2024-04-15T10:18:13.714Z,25.33
2024-04-15T10:20:44.058Z,25.39
2024-04-15T10:23:16.920Z,25.43
2024-04-15T10:25:45.314Z,25.56
2024-04-15T10:28:16.207Z,25.62
2024-04-15T10:30:48.225Z,25.68
2024-04-15T10:33:21.223Z,25.75
2024-04-15T10:35:53.285Z,25.83
2024-04-15T10:38:21.664Z,25.90
2024-04-15T10:40:50.270Z,26.05
2024-04-15T10:43:20.096Z,26.19
2024-04-15T10:45:49.623Z,26.33
2024-04-15T10:48:18.207Z,26.49
2024-04-15T10:50:46.614Z,26.62
2024-04-15T10:53:16.290Z,26.74
2024-04-15T10:55:44.506Z,26.86
2024-04-15T10:58:13.993Z,26.96
2024-04-15T11:00:45.930Z,27.05
2024-04-15T11:03:14.373Z,27.18
2024-04-15T11:05:44.270Z,27.12
2024-04-15T11:08:14.887Z,27.12
2024-04-15T11:10:43.931Z,27.29
2024-04-15T11:13:12.498Z,27.44
2024-04-15T11:15:41.511Z,27.61
2024-04-15T11:18:16.910Z,27.78
2024-04-15T11:20:45.259Z,27.97
2024-04-15T11:23:14.499Z,28.14
2024-04-15T11:25:45.021Z,28.27
2024-04-15T11:28:17.832Z,28.40
2024-04-15T11:30:48.279Z,28.57
2024-04-15T11:33:17.600Z,28.70
2024-04-15T11:35:50.067Z,28.77
2024-04-15T11:38:21.519Z,28.91
2024-04-15T11:40:52.180Z,28.88
2024-04-15T11:43:21.499Z,28.88
2024-04-15T11:45:57.618Z,28.97
2024-04-15T11:48:26.620Z,29.09
2024-04-15T11:50:56.134Z,29.24
2024-04-15T11:53:27.071Z,29.36
2024-04-15T11:55:55.725Z,29.37
2024-04-15T11:58:24.294Z,29.37
2024-04-15T12:00:53.535Z,29.45
2024-04-15T12:03:22.459Z,29.45
2024-04-15T12:05:54.396Z,29.48
2024-04-15T12:08:23.211Z,29.53
2024-04-15T12:10:53.356Z,29.55
2024-04-15T12:13:21.374Z,29.57
2024-04-15T12:15:49.890Z,29.68
2024-04-15T12:18:17.928Z,29.74
2024-04-15T12:20:46.004Z,29.84
2024-04-15T12:23:14.275Z,29.87
2024-04-15T12:25:42.362Z,29.95
2024-04-15T12:28:10.871Z,29.94
2024-04-15T12:30:39.341Z,30.00
2024-04-15T12:33:07.606Z,30.05
2024-04-15T12:35:35.761Z,30.04
2024-04-15T12:38:04.078Z,30.01
2024-04-15T12:40:32.241Z,30.07
2024-04-15T12:43:00.554Z,30.09
2024-04-15T12:45:28.592Z,30.06
2024-04-15T12:47:56.754Z,30.04
2024-04-15T12:50:25.550Z,30.02
2024-04-15T12:52:54.307Z,30.06
2024-04-15T12:55:22.644Z,30.14
2024-04-15T12:57:51.036Z,30.22
2024-04-15T13:00:19.623Z,30.21
2024-04-15T13:02:47.841Z,30.22
2024-04-15T13:05:16.170Z,30.28
2024-04-15T13:07:44.402Z,30.44
2024-04-15T13:10:13.782Z,30.58
2024-04-15T13:12:46.047Z,30.54
2024-04-15T13:15:14.091Z,30.49
2024-04-15T13:17:42.169Z,30.49
2024-04-15T13:20:10.778Z,30.43
2024-04-15T13:22:39.218Z,30.40
2024-04-15T13:25:08.643Z,30.27
2024-04-15T13:27:39.319Z,30.24
2024-04-15T13:30:09.961Z,30.18
2024-04-15T13:32:39.433Z,30.27
2024-04-15T13:35:08.215Z,30.31
2024-04-15T13:37:36.501Z,30.32
2024-04-15T13:40:05.851Z,30.36
2024-04-15T13:42:34.079Z,30.38
2024-04-15T13:45:02.287Z,30.38
2024-04-15T13:47:30.531Z,30.39
2024-04-15T13:49:58.490Z,30.45
2024-04-15T13:52:26.603Z,30.49
2024-04-15T13:54:54.957Z,30.54
2024-04-15T13:57:23.218Z,30.55
2024-04-15T13:59:51.461Z,30.52
2024-04-15T14:02:21.711Z,30.48
2024-04-15T14:04:50.997Z,30.51
2024-04-15T14:07:19.073Z,30.61
2024-04-15T14:09:47.467Z,30.64
2024-04-15T14:12:15.405Z,30.52
2024-04-15T14:14:43.920Z,30.51
2024-04-15T14:17:13.458Z,30.54
2024-04-15T14:19:41.677Z,30.72
2024-04-15T14:22:09.958Z,30.84
2024-04-15T14:24:41.588Z,30.95
2024-04-15T14:27:10.776Z,31.11
2024-04-15T14:29:39.946Z,31.26
2024-04-15T14:32:07.876Z,31.29
2024-04-15T14:34:36.031Z,31.38
2024-04-15T14:37:04.774Z,31.48
2024-04-15T14:39:32.871Z,31.76
2024-04-15T14:42:00.855Z,31.94
2024-04-15T14:44:28.876Z,31.82
2024-04-15T14:46:56.747Z,31.66
2024-04-15T14:49:28.175Z,31.82
2024-04-15T14:51:57.414Z,31.83
2024-04-15T14:54:25.665Z,31.90
2024-04-15T14:56:54.283Z,31.81
2024-04-15T14:59:22.713Z,31.94
2024-04-15T15:01:50.836Z,31.93
2024-04-15T15:04:19.510Z,31.79
2024-04-15T15:06:47.685Z,31.85
2024-04-15T15:09:15.850Z,31.67
2024-04-15T15:11:43.969Z,31.42
2024-04-15T15:14:12.112Z,31.22
2024-04-15T15:16:40.766Z,30.97
2024-04-15T15:19:09.771Z,30.88
2024-04-15T15:21:38.204Z,30.69
2024-04-15T15:24:06.163Z,30.74
2024-04-15T15:26:38.605Z,30.53
2024-04-15T15:29:15.307Z,30.61
2024-04-15T15:31:43.703Z,30.55
2024-04-15T15:34:11.736Z,30.47
2024-04-15T15:36:40.601Z,30.26
2024-04-15T15:39:09.367Z,30.17
2024-04-15T15:41:37.894Z,30.03
2024-04-15T15:44:05.781Z,30.03
2024-04-15T15:46:34.131Z,30.00
2024-04-15T15:49:02.196Z,29.91
2024-04-15T15:51:30.434Z,29.80
2024-04-15T15:53:58.598Z,29.67
2024-04-15T15:56:26.626Z,29.41
2024-04-15T15:58:54.983Z,29.18
2024-04-15T16:01:23.064Z,29.04
2024-04-15T16:03:51.394Z,28.83
2024-04-15T16:06:19.578Z,28.64
2024-04-15T16:08:47.663Z,28.44
2024-04-15T16:11:16.298Z,28.32
2024-04-15T16:13:45.715Z,28.16
2024-04-15T16:16:13.983Z,28.07
2024-04-15T16:18:42.120Z,27.94
2024-04-15T16:21:10.290Z,27.84
2024-04-15T16:23:38.144Z,27.71
2024-04-15T16:26:06.262Z,27.64
2024-04-15T16:28:35.005Z,27.57
2024-04-15T16:31:05.349Z,27.47
2024-04-15T16:33:33.603Z,27.40
2024-04-15T16:36:04.214Z,27.29
2024-04-15T16:38:33.098Z,27.20
2024-04-15T16:41:01.535Z,27.09
2024-04-15T16:43:29.555Z,27.02
2024-04-15T16:45:57.882Z,26.96
2024-04-15T16:48:26.192Z,26.83
2024-04-15T16:50:54.979Z,26.70
2024-04-15T16:53:23.394Z,26.55
2024-04-15T16:55:52.850Z,26.44
2024-04-15T16:58:24.659Z,26.30
2024-04-15T17:00:55.153Z,26.16
2024-04-15T17:03:23.866Z,26.07
2024-04-15T17:05:52.280Z,25.91
2024-04-15T17:08:20.425Z,25.81
2024-04-15T17:10:48.590Z,25.67
2024-04-15T17:13:16.869Z,25.60
2024-04-15T17:15:45.509Z,25.54
2024-04-15T17:18:13.732Z,25.49
2024-04-15T17:20:43.161Z,25.44
2024-04-15T17:23:11.214Z,25.38
2024-04-15T17:25:39.509Z,25.31
2024-04-15T17:28:11.690Z,25.24
2024-04-15T17:30:39.885Z,25.18
2024-04-15T17:33:08.879Z,25.13
2024-04-15T17:35:36.785Z,25.05
2024-04-15T17:38:05.137Z,24.99
2024-04-15T17:40:33.217Z,24.88
2024-04-15T17:43:01.840Z,24.77
2024-04-15T17:45:30.247Z,24.69
2024-04-15T17:47:58.594Z,24.61
2024-04-15T17:50:27.185Z,24.48
2024-04-15T17:52:55.382Z,24.42
2024-04-15T17:55:24.026Z,24.36
2024-04-15T17:57:52.990Z,24.32
2024-04-15T18:00:21.088Z,24.27
2024-04-15T18:02:49.407Z,24.22
2024-04-15T18:05:18.210Z,24.20
2024-04-15T18:07:48.412Z,24.16
2024-04-15T18:10:18.431Z,24.09
2024-04-15T18:12:48.214Z,24.05
2024-04-15T18:15:16.668Z,24.01
2024-04-15T18:17:45.234Z,23.95
2024-04-15T18:20:14.492Z,23.94
2024-04-15T18:22:42.715Z,23.90
2024-04-15T18:25:11.249Z,23.88
2024-04-15T18:27:40.362Z,23.82
2024-04-15T18:30:09.587Z,23.80
2024-04-15T18:32:37.925Z,23.80
2024-04-15T18:35:06.839Z,23.76
2024-04-15T18:37:35.244Z,23.74
2024-04-15T18:40:03.415Z,23.71
2024-04-15T18:42:32.488Z,23.68
2024-04-15T18:45:04.650Z,23.57
2024-04-15T18:47:34.525Z,23.51
2024-04-15T18:50:02.793Z,23.45
2024-04-15T18:52:31.447Z,23.37
2024-04-15T18:54:59.942Z,23.29
2024-04-15T18:57:28.328Z,23.29
2024-04-15T18:59:56.565Z,23.19
2024-04-15T19:02:24.785Z,23.11
2024-04-15T19:04:52.779Z,23.10
2024-04-15T19:07:20.793Z,23.02
2024-04-15T19:09:48.945Z,23.01
2024-04-15T19:12:18.116Z,22.96
2024-04-15T19:14:58.464Z,22.93
2024-04-15T19:17:34.028Z,22.84
2024-04-15T19:20:02.364Z,22.77
2024-04-15T19:22:30.700Z,22.75
2024-04-15T19:24:58.969Z,22.70
2024-04-15T19:27:27.267Z,22.68
2024-04-15T19:29:55.742Z,22.68
2024-04-15T19:32:24.408Z,22.65
2024-04-15T19:34:52.751Z,22.64
2024-04-15T19:37:21.205Z,22.63
2024-04-15T19:39:49.572Z,22.63
2024-04-15T19:42:18.944Z,22.62
2024-04-15T19:44:46.807Z,22.58
2024-04-15T19:47:14.987Z,22.60
2024-04-15T19:49:43.029Z,22.57
2024-04-15T19:52:11.578Z,22.56
2024-04-15T19:54:39.790Z,22.50
2024-04-15T19:57:07.910Z,22.47
2024-04-15T19:59:35.941Z,22.43
2024-04-15T20:02:04.688Z,22.42
2024-04-15T20:04:32.720Z,22.35
2024-04-15T20:07:00.918Z,22.29
2024-04-15T20:09:28.840Z,22.26
2024-04-15T20:11:56.743Z,22.27
2024-04-15T20:14:24.833Z,22.24
2024-04-15T20:17:00.325Z,22.21
2024-04-15T20:19:30.350Z,22.23
2024-04-15T20:21:58.619Z,22.22
2024-04-15T20:24:26.808Z,22.18
2024-04-15T20:26:55.030Z,22.06
2024-04-15T20:29:23.919Z,21.96
2024-04-15T20:31:51.795Z,21.89
2024-04-15T20:34:20.073Z,21.77
2024-04-15T20:36:48.230Z,21.68
2024-04-15T20:39:16.317Z,21.58
2024-04-15T20:41:44.166Z,21.46
2024-04-15T20:44:12.138Z,21.36
2024-04-15T20:46:40.597Z,21.26
2024-04-15T20:49:08.773Z,21.18
2024-04-15T20:51:36.772Z,21.07
2024-04-15T20:54:04.832Z,20.96
2024-04-15T20:56:33.117Z,20.84
2024-04-15T20:59:01.187Z,20.76
2024-04-15T21:01:29.489Z,20.67
2024-04-15T21:03:58.399Z,20.58
2024-04-15T21:06:26.644Z,20.50
2024-04-15T21:08:56.091Z,20.41
2024-04-15T21:11:23.976Z,20.32
2024-04-15T21:13:53.471Z,20.20
2024-04-15T21:16:21.307Z,20.08
2024-04-15T21:18:50.124Z,19.98
2024-04-15T21:21:18.052Z,19.88
2024-04-15T21:23:45.875Z,19.80
2024-04-15T21:26:14.167Z,19.72
2024-04-15T21:28:42.154Z,19.62
2024-04-15T21:31:10.145Z,19.54
2024-04-15T21:33:38.226Z,19.46
2024-04-15T21:36:08.426Z,19.39
2024-04-15T21:38:36.393Z,19.34
2024-04-15T21:41:04.748Z,19.30
2024-04-15T21:43:32.949Z,19.27
2024-04-15T21:46:00.822Z,19.22
2024-04-15T21:48:29.070Z,19.20
2024-04-15T21:50:57.323Z,19.17
2024-04-15T21:53:25.728Z,19.13
2024-04-15T21:55:54.095Z,19.08
2024-04-15T21:58:22.111Z,19.03
2024-04-15T22:00:50.505Z,18.95
2024-04-15T22:03:18.688Z,18.88
2024-04-15T22:05:46.951Z,18.81
2024-04-15T22:08:14.894Z,18.75
2024-04-15T22:10:42.979Z,18.71
2024-04-15T22:13:11.006Z,18.67
2024-04-15T22:15:39.289Z,18.62
2024-04-15T22:18:08.190Z,18.57
2024-04-15T22:20:36.153Z,18.53
2024-04-15T22:23:04.770Z,18.50
2024-04-15T22:25:33.191Z,18.45
2024-04-15T22:28:01.266Z,18.42
2024-04-15T22:30:29.277Z,18.39
2024-04-15T22:32:57.471Z,18.36
2024-04-15T22:35:25.914Z,18.32
2024-04-15T22:37:54.035Z,18.25
2024-04-15T22:40:22.679Z,18.19
2024-04-15T22:42:52.703Z,18.13
2024-04-15T22:45:20.655Z,18.08
2024-04-15T22:47:48.701Z,18.03
2024-04-15T22:50:16.943Z,17.98
2024-04-15T22:52:44.739Z,17.93
2024-04-15T22:55:12.567Z,17.89
2024-04-15T22:57:41.015Z,17.85
2024-04-15T23:00:09.745Z,17.84
2024-04-15T23:02:37.633Z,17.79
2024-04-15T23:05:06.025Z,17.74
2024-04-15T23:07:34.259Z,17.69
2024-04-15T23:10:02.378Z,17.63
2024-04-15T23:12:30.613Z,17.59
2024-04-15T23:14:58.546Z,17.57
2024-04-15T23:17:26.456Z,17.54
2024-04-15T23:19:54.487Z,17.51
2024-04-15T23:22:22.358Z,17.48
2024-04-15T23:24:50.318Z,17.45
2024-04-15T23:27:18.337Z,17.44
2024-04-15T23:29:46.425Z,17.40
2024-04-15T23:32:14.377Z,17.37
2024-04-15T23:34:42.174Z,17.34
2024-04-15T23:37:10.246Z,17.31
2024-04-15T23:39:38.359Z,17.31
2024-04-15T23:42:06.167Z,17.29
2024-04-15T23:44:34.101Z,17.26
2024-04-15T23:47:20.767Z,17.21
2024-04-15T23:50:07.692Z,17.18
2024-04-15T23:52:54.576Z,17.16
2024-04-15T23:55:41.307Z,17.14
2024-04-15T23:58:10.529Z,17.09
